sensor_id;sensor_type;location;lat;lon;timestamp;temperature;humidity
22578;DHT22;11455;52.390;13.028;2023-02-01T00:00:49;6.60;32.40
22578;DHT22;11455;52.390;13.028;2023-02-01T00:03:14;6.60;31.00
22578;DHT22;11455;52.390;13.028;2023-02-01T00:05:40;6.60;35.80
22578;DHT22;11455;52.390;13.028;2023-02-01T00:08:06;6.60;38.90
22578;DHT22;11455;52.390;13.028;2023-02-01T00:10:31;6.50;44.20
22578;DHT22;11455;52.390;13.028;2023-02-01T00:12:57;6.50;43.30
22578;DHT22;11455;52.390;13.028;2023-02-01T00:15:22;6.60;45.40
22578;DHT22;11455;52.390;13.028;2023-02-01T00:17:52;6.60;48.10
22578;DHT22;11455;52.390;13.028;2023-02-01T00:20:18;6.50;42.70
22578;DHT22;11455;52.390;13.028;2023-02-01T00:22:44;6.60;50.00
22578;DHT22;11455;52.390;13.028;2023-02-01T00:25:09;6.60;52.10
22578;DHT22;11455;52.390;13.028;2023-02-01T00:27:35;6.60;53.10
22578;DHT22;11455;52.390;13.028;2023-02-01T00:30:00;6.60;51.10
22578;DHT22;11455;52.390;13.028;2023-02-01T00:32:29;6.70;49.20
22578;DHT22;11455;52.390;13.028;2023-02-01T00:34:57;6.70;45.60
22578;DHT22;11455;52.390;13.028;2023-02-01T00:37:22;6.70;51.10
22578;DHT22;11455;52.390;13.028;2023-02-01T00:39:48;6.70;70.10
22578;DHT22;11455;52.390;13.028;2023-02-01T00:42:14;6.50;99.90
22578;DHT22;11455;52.390;13.028;2023-02-01T00:44:40;6.40;99.90
22578;DHT22;11455;52.390;13.028;2023-02-01T00:47:06;6.30;99.90
22578;DHT22;11455;52.390;13.028;2023-02-01T00:49:32;6.20;99.90
22578;DHT22;11455;52.390;13.028;2023-02-01T00:51:57;6.20;99.90
22578;DHT22;11455;52.390;13.028;2023-02-01T00:54:23;6.30;99.90
22578;DHT22;11455;52.390;13.028;2023-02-01T00:56:49;6.20;99.90
22578;DHT22;11455;52.390;13.028;2023-02-01T00:59:14;6.20;99.90
22578;DHT22;11455;52.390;13.028;2023-02-01T01:01:40;6.20;99.90
22578;DHT22;11455;52.390;13.028;2023-02-01T01:04:06;6.30;99.90
22578;DHT22;11455;52.390;13.028;2023-02-01T01:06:33;6.30;99.90
22578;DHT22;11455;52.390;13.028;2023-02-01T01:09:00;6.30;99.90
22578;DHT22;11455;52.390;13.028;2023-02-01T01:11:27;6.30;99.90
22578;DHT22;11455;52.390;13.028;2023-02-01T01:13:53;6.30;99.90
22578;DHT22;11455;52.390;13.028;2023-02-01T01:16:21;6.40;99.90
22578;DHT22;11455;52.390;13.028;2023-02-01T01:18:47;6.40;99.90
22578;DHT22;11455;52.390;13.028;2023-02-01T01:21:13;6.40;94.60
22578;DHT22;11455;52.390;13.028;2023-02-01T01:23:40;6.40;70.80
22578;DHT22;11455;52.390;13.028;2023-02-01T01:26:06;6.50;63.90
22578;DHT22;11455;52.390;13.028;2023-02-01T01:28:32;6.50;57.70
22578;DHT22;11455;52.390;13.028;2023-02-01T01:30:58;6.50;40.50
22578;DHT22;11455;52.390;13.028;2023-02-01T01:33:23;6.50;40.90
22578;DHT22;11455;52.390;13.028;2023-02-01T01:35:49;6.60;38.70
22578;DHT22;11455;52.390;13.028;2023-02-01T01:38:15;6.60;44.40
22578;DHT22;11455;52.390;13.028;2023-02-01T01:40:46;6.60;40.10
22578;DHT22;11455;52.390;13.028;2023-02-01T01:43:16;6.60;35.70
22578;DHT22;11455;52.390;13.028;2023-02-01T01:45:42;6.50;50.40
22578;DHT22;11455;52.390;13.028;2023-02-01T01:50:38;6.60;55.80
22578;DHT22;11455;52.390;13.028;2023-02-01T01:53:05;6.50;69.70
22578;DHT22;11455;52.390;13.028;2023-02-01T01:55:34;6.50;75.80
22578;DHT22;11455;52.390;13.028;2023-02-01T01:58:04;6.60;74.30
22578;DHT22;11455;52.390;13.028;2023-02-01T02:00:31;6.50;75.80
22578;DHT22;11455;52.390;13.028;2023-02-01T02:02:58;6.50;75.30
22578;DHT22;11455;52.390;13.028;2023-02-01T02:05:25;6.50;86.40
22578;DHT22;11455;52.390;13.028;2023-02-01T02:07:54;6.50;89.40
22578;DHT22;11455;52.390;13.028;2023-02-01T02:10:22;6.40;85.50
22578;DHT22;11455;52.390;13.028;2023-02-01T02:13:08;6.40;93.40
22578;DHT22;11455;52.390;13.028;2023-02-01T02:15:34;6.50;95.30
22578;DHT22;11455;52.390;13.028;2023-02-01T02:18:04;6.50;94.80
22578;DHT22;11455;52.390;13.028;2023-02-01T02:37:52;6.50;97.50
22578;DHT22;11455;52.390;13.028;2023-02-01T02:40:32;6.60;94.20
22578;DHT22;11455;52.390;13.028;2023-02-01T02:46:00;6.60;96.80
22578;DHT22;11455;52.390;13.028;2023-02-01T02:48:52;6.70;92.70
22578;DHT22;11455;52.390;13.028;2023-02-01T02:51:32;6.70;88.80
22578;DHT22;11455;52.390;13.028;2023-02-01T02:54:19;6.70;77.60
22578;DHT22;11455;52.390;13.028;2023-02-01T02:57:06;6.70;87.80
22578;DHT22;11455;52.390;13.028;2023-02-01T02:59:51;6.60;89.90
22578;DHT22;11455;52.390;13.028;2023-02-01T03:02:36;6.60;80.00
22578;DHT22;11455;52.390;13.028;2023-02-01T03:05:21;6.60;73.30
22578;DHT22;11455;52.390;13.028;2023-02-01T03:07:53;6.60;75.60
22578;DHT22;11455;52.390;13.028;2023-02-01T03:12:49;6.60;71.20
22578;DHT22;11455;52.390;13.028;2023-02-01T03:15:35;6.60;69.10
22578;DHT22;11455;52.390;13.028;2023-02-01T03:18:02;6.60;71.50
22578;DHT22;11455;52.390;13.028;2023-02-01T03:20:30;6.60;73.00
22578;DHT22;11455;52.390;13.028;2023-02-01T03:22:57;6.60;64.70
22578;DHT22;11455;52.390;13.028;2023-02-01T03:25:25;6.60;69.60
22578;DHT22;11455;52.390;13.028;2023-02-01T03:27:57;6.60;61.40
22578;DHT22;11455;52.390;13.028;2023-02-01T03:30:30;6.70;59.40
22578;DHT22;11455;52.390;13.028;2023-02-01T03:32:59;6.70;58.00
22578;DHT22;11455;52.390;13.028;2023-02-01T03:38:50;6.70;49.30
22578;DHT22;11455;52.390;13.028;2023-02-01T03:43:37;6.70;52.20
22578;DHT22;11455;52.390;13.028;2023-02-01T03:46:06;6.70;56.50
22578;DHT22;11455;52.390;13.028;2023-02-01T03:48:34;6.80;53.60
22578;DHT22;11455;52.390;13.028;2023-02-01T03:51:01;6.80;47.60
22578;DHT22;11455;52.390;13.028;2023-02-01T03:53:28;6.80;45.30
22578;DHT22;11455;52.390;13.028;2023-02-01T03:55:55;6.90;47.90
22578;DHT22;11455;52.390;13.028;2023-02-01T03:58:22;6.90;49.10
22578;DHT22;11455;52.390;13.028;2023-02-01T04:00:55;6.90;47.10
22578;DHT22;11455;52.390;13.028;2023-02-01T04:03:21;6.90;42.50
22578;DHT22;11455;52.390;13.028;2023-02-01T04:05:50;6.90;44.50
22578;DHT22;11455;52.390;13.028;2023-02-01T04:08:17;7.00;36.70
22578;DHT22;11455;52.390;13.028;2023-02-01T04:10:43;7.00;36.30
22578;DHT22;11455;52.390;13.028;2023-02-01T04:13:09;6.90;34.70
22578;DHT22;11455;52.390;13.028;2023-02-01T04:15:35;6.90;37.80
22578;DHT22;11455;52.390;13.028;2023-02-01T04:18:00;6.90;43.00
22578;DHT22;11455;52.390;13.028;2023-02-01T04:20:26;6.90;45.40
22578;DHT22;11455;52.390;13.028;2023-02-01T04:22:52;6.90;54.30
22578;DHT22;11455;52.390;13.028;2023-02-01T04:25:18;6.90;47.60
22578;DHT22;11455;52.390;13.028;2023-02-01T04:27:45;6.90;41.20
22578;DHT22;11455;52.390;13.028;2023-02-01T04:30:11;6.90;47.60
22578;DHT22;11455;52.390;13.028;2023-02-01T04:32:37;6.90;47.30
22578;DHT22;11455;52.390;13.028;2023-02-01T04:35:03;7.00;52.00
22578;DHT22;11455;52.390;13.028;2023-02-01T04:37:29;7.00;45.60
22578;DHT22;11455;52.390;13.028;2023-02-01T04:39:54;7.00;42.40
22578;DHT22;11455;52.390;13.028;2023-02-01T04:42:20;7.00;40.60
22578;DHT22;11455;52.390;13.028;2023-02-01T04:44:46;6.90;49.20
22578;DHT22;11455;52.390;13.028;2023-02-01T04:47:12;7.00;44.00
22578;DHT22;11455;52.390;13.028;2023-02-01T04:49:37;7.00;41.10
22578;DHT22;11455;52.390;13.028;2023-02-01T04:52:03;7.00;42.20
22578;DHT22;11455;52.390;13.028;2023-02-01T04:54:31;7.10;33.80
22578;DHT22;11455;52.390;13.028;2023-02-01T04:56:56;7.10;37.60
22578;DHT22;11455;52.390;13.028;2023-02-01T04:59:25;7.10;33.90
22578;DHT22;11455;52.390;13.028;2023-02-01T05:01:54;7.10;39.30
22578;DHT22;11455;52.390;13.028;2023-02-01T05:04:19;7.10;38.00
22578;DHT22;11455;52.390;13.028;2023-02-01T05:06:45;7.10;35.80
22578;DHT22;11455;52.390;13.028;2023-02-01T05:09:11;7.10;42.90
22578;DHT22;11455;52.390;13.028;2023-02-01T05:11:36;7.00;39.50
22578;DHT22;11455;52.390;13.028;2023-02-01T05:14:21;7.00;44.70
22578;DHT22;11455;52.390;13.028;2023-02-01T05:16:46;6.90;52.90
22578;DHT22;11455;52.390;13.028;2023-02-01T05:19:12;6.90;64.30
22578;DHT22;11455;52.390;13.028;2023-02-01T05:21:38;6.90;65.10
22578;DHT22;11455;52.390;13.028;2023-02-01T05:24:03;7.00;68.70
22578;DHT22;11455;52.390;13.028;2023-02-01T05:26:45;7.00;64.60
22578;DHT22;11455;52.390;13.028;2023-02-01T05:29:11;7.00;59.80
22578;DHT22;11455;52.390;13.028;2023-02-01T05:31:37;7.00;63.20
22578;DHT22;11455;52.390;13.028;2023-02-01T05:34:03;7.00;56.10
22578;DHT22;11455;52.390;13.028;2023-02-01T05:36:28;6.90;63.70
22578;DHT22;11455;52.390;13.028;2023-02-01T05:38:54;6.90;80.10
22578;DHT22;11455;52.390;13.028;2023-02-01T05:41:20;6.90;88.70
22578;DHT22;11455;52.390;13.028;2023-02-01T05:43:45;6.90;83.30
22578;DHT22;11455;52.390;13.028;2023-02-01T05:46:11;7.00;71.50
22578;DHT22;11455;52.390;13.028;2023-02-01T05:48:41;6.90;81.60
22578;DHT22;11455;52.390;13.028;2023-02-01T05:51:07;6.90;88.20
22578;DHT22;11455;52.390;13.028;2023-02-01T05:53:32;6.90;86.20
22578;DHT22;11455;52.390;13.028;2023-02-01T05:55:58;6.90;91.70
22578;DHT22;11455;52.390;13.028;2023-02-01T05:58:24;7.00;92.90
22578;DHT22;11455;52.390;13.028;2023-02-01T06:00:49;6.90;86.30
22578;DHT22;11455;52.390;13.028;2023-02-01T06:03:15;6.90;92.40
22578;DHT22;11455;52.390;13.028;2023-02-01T06:05:43;6.90;92.50
22578;DHT22;11455;52.390;13.028;2023-02-01T06:08:08;7.00;85.70
22578;DHT22;11455;52.390;13.028;2023-02-01T06:10:34;7.00;81.50
22578;DHT22;11455;52.390;13.028;2023-02-01T06:13:00;7.00;81.30
22578;DHT22;11455;52.390;13.028;2023-02-01T06:15:25;7.00;68.50
22578;DHT22;11455;52.390;13.028;2023-02-01T06:17:51;6.90;73.00
22578;DHT22;11455;52.390;13.028;2023-02-01T06:20:16;6.80;93.10
22578;DHT22;11455;52.390;13.028;2023-02-01T06:22:42;6.80;95.00
22578;DHT22;11455;52.390;13.028;2023-02-01T06:25:10;6.80;85.20
22578;DHT22;11455;52.390;13.028;2023-02-01T06:27:36;6.80;96.80
22578;DHT22;11455;52.390;13.028;2023-02-01T06:30:03;6.90;88.20
22578;DHT22;11455;52.390;13.028;2023-02-01T06:32:29;6.80;91.00
22578;DHT22;11455;52.390;13.028;2023-02-01T06:34:55;6.80;90.10
22578;DHT22;11455;52.390;13.028;2023-02-01T06:37:21;6.80;84.50
22578;DHT22;11455;52.390;13.028;2023-02-01T06:39:48;6.90;79.40
22578;DHT22;11455;52.390;13.028;2023-02-01T06:42:14;6.80;82.50
22578;DHT22;11455;52.390;13.028;2023-02-01T06:44:39;6.80;87.10
22578;DHT22;11455;52.390;13.028;2023-02-01T06:47:10;6.80;88.10
22578;DHT22;11455;52.390;13.028;2023-02-01T06:49:35;6.80;87.90
22578;DHT22;11455;52.390;13.028;2023-02-01T06:52:01;6.80;80.50
22578;DHT22;11455;52.390;13.028;2023-02-01T06:54:27;6.90;63.10
22578;DHT22;11455;52.390;13.028;2023-02-01T06:56:53;6.90;78.60
22578;DHT22;11455;52.390;13.028;2023-02-01T06:59:18;6.80;77.70
22578;DHT22;11455;52.390;13.028;2023-02-01T07:01:44;6.80;72.00
22578;DHT22;11455;52.390;13.028;2023-02-01T07:04:11;6.90;77.50
22578;DHT22;11455;52.390;13.028;2023-02-01T07:06:37;6.80;88.70
22578;DHT22;11455;52.390;13.028;2023-02-01T07:09:02;6.80;99.90
22578;DHT22;11455;52.390;13.028;2023-02-01T07:11:28;6.90;97.40
22578;DHT22;11455;52.390;13.028;2023-02-01T07:13:54;6.90;99.90
22578;DHT22;11455;52.390;13.028;2023-02-01T07:16:19;6.80;99.90
22578;DHT22;11455;52.390;13.028;2023-02-01T07:18:46;6.80;99.90
22578;DHT22;11455;52.390;13.028;2023-02-01T07:21:11;6.80;99.90
22578;DHT22;11455;52.390;13.028;2023-02-01T07:23:37;6.80;99.90
22578;DHT22;11455;52.390;13.028;2023-02-01T07:26:04;6.80;99.90
22578;DHT22;11455;52.390;13.028;2023-02-01T07:28:31;6.80;99.90
22578;DHT22;11455;52.390;13.028;2023-02-01T07:31:10;6.80;99.90
22578;DHT22;11455;52.390;13.028;2023-02-01T07:33:40;6.70;99.90
22578;DHT22;11455;52.390;13.028;2023-02-01T07:36:06;6.60;99.90
22578;DHT22;11455;52.390;13.028;2023-02-01T07:38:32;6.60;99.90
22578;DHT22;11455;52.390;13.028;2023-02-01T07:40:58;6.60;99.90
22578;DHT22;11455;52.390;13.028;2023-02-01T07:43:25;6.60;99.90
22578;DHT22;11455;52.390;13.028;2023-02-01T07:45:51;6.50;99.90
22578;DHT22;11455;52.390;13.028;2023-02-01T07:48:17;6.50;99.90
22578;DHT22;11455;52.390;13.028;2023-02-01T07:50:45;6.50;99.90
22578;DHT22;11455;52.390;13.028;2023-02-01T07:53:11;6.60;99.90
22578;DHT22;11455;52.390;13.028;2023-02-01T07:55:40;6.50;99.90
22578;DHT22;11455;52.390;13.028;2023-02-01T07:58:08;6.50;99.90
22578;DHT22;11455;52.390;13.028;2023-02-01T08:00:33;6.50;99.90
22578;DHT22;11455;52.390;13.028;2023-02-01T08:03:18;6.50;99.90
22578;DHT22;11455;52.390;13.028;2023-02-01T08:05:43;6.50;99.90
22578;DHT22;11455;52.390;13.028;2023-02-01T08:08:09;6.50;99.90
22578;DHT22;11455;52.390;13.028;2023-02-01T08:10:35;6.40;99.90
22578;DHT22;11455;52.390;13.028;2023-02-01T08:13:01;6.40;99.90
22578;DHT22;11455;52.390;13.028;2023-02-01T08:15:28;6.40;99.90
22578;DHT22;11455;52.390;13.028;2023-02-01T08:17:53;6.40;99.90
22578;DHT22;11455;52.390;13.028;2023-02-01T08:20:24;6.30;99.90
22578;DHT22;11455;52.390;13.028;2023-02-01T08:22:52;6.20;99.90
22578;DHT22;11455;52.390;13.028;2023-02-01T08:25:18;6.20;99.90
22578;DHT22;11455;52.390;13.028;2023-02-01T08:27:44;6.30;99.90
22578;DHT22;11455;52.390;13.028;2023-02-01T08:30:12;6.20;99.90
22578;DHT22;11455;52.390;13.028;2023-02-01T08:32:38;6.20;99.90
22578;DHT22;11455;52.390;13.028;2023-02-01T08:35:04;6.20;99.90
22578;DHT22;11455;52.390;13.028;2023-02-01T08:37:30;6.20;99.90
22578;DHT22;11455;52.390;13.028;2023-02-01T08:39:56;6.10;99.90
22578;DHT22;11455;52.390;13.028;2023-02-01T08:42:21;6.10;99.90
22578;DHT22;11455;52.390;13.028;2023-02-01T08:45:06;6.10;99.90
22578;DHT22;11455;52.390;13.028;2023-02-01T08:47:33;6.00;1.00
22578;DHT22;11455;52.390;13.028;2023-02-01T08:49:59;6.00;1.00
22578;DHT22;11455;52.390;13.028;2023-02-01T08:52:25;6.10;1.00
22578;DHT22;11455;52.390;13.028;2023-02-01T08:54:50;6.00;99.90
22578;DHT22;11455;52.390;13.028;2023-02-01T08:57:16;6.00;1.00
22578;DHT22;11455;52.390;13.028;2023-02-01T08:59:42;6.00;99.90
22578;DHT22;11455;52.390;13.028;2023-02-01T09:02:12;5.90;1.00
22578;DHT22;11455;52.390;13.028;2023-02-01T09:04:39;5.90;1.00
22578;DHT22;11455;52.390;13.028;2023-02-01T09:07:05;5.90;1.00
22578;DHT22;11455;52.390;13.028;2023-02-01T09:09:30;5.90;1.00
22578;DHT22;11455;52.390;13.028;2023-02-01T09:11:56;5.90;1.00
22578;DHT22;11455;52.390;13.028;2023-02-01T09:14:24;5.90;1.00
22578;DHT22;11455;52.390;13.028;2023-02-01T09:16:50;5.90;1.00
22578;DHT22;11455;52.390;13.028;2023-02-01T09:19:15;5.90;1.00
22578;DHT22;11455;52.390;13.028;2023-02-01T09:21:41;6.00;1.00
22578;DHT22;11455;52.390;13.028;2023-02-01T09:24:08;5.90;1.00
22578;DHT22;11455;52.390;13.028;2023-02-01T09:26:33;6.00;1.00
22578;DHT22;11455;52.390;13.028;2023-02-01T09:28:59;6.00;1.00
22578;DHT22;11455;52.390;13.028;2023-02-01T09:31:25;6.00;1.00
22578;DHT22;11455;52.390;13.028;2023-02-01T09:33:51;6.00;1.00
22578;DHT22;11455;52.390;13.028;2023-02-01T09:36:16;6.00;99.90
22578;DHT22;11455;52.390;13.028;2023-02-01T09:38:47;6.00;1.00
22578;DHT22;11455;52.390;13.028;2023-02-01T09:41:26;6.10;1.00
22578;DHT22;11455;52.390;13.028;2023-02-01T09:46:32;6.10;99.90
22578;DHT22;11455;52.390;13.028;2023-02-01T09:49:01;6.00;99.90
22578;DHT22;11455;52.390;13.028;2023-02-01T09:51:36;6.00;99.90
22578;DHT22;11455;52.390;13.028;2023-02-01T09:54:05;5.90;1.00
22578;DHT22;11455;52.390;13.028;2023-02-01T09:56:40;5.90;1.00
22578;DHT22;11455;52.390;13.028;2023-02-01T10:01:39;6.00;1.00
22578;DHT22;11455;52.390;13.028;2023-02-01T10:04:05;6.00;1.00
22578;DHT22;11455;52.390;13.028;2023-02-01T10:06:38;6.10;1.00
22578;DHT22;11455;52.390;13.028;2023-02-01T10:09:13;6.10;1.00
22578;DHT22;11455;52.390;13.028;2023-02-01T10:14:30;6.10;99.90
22578;DHT22;11455;52.390;13.028;2023-02-01T10:17:10;6.20;99.90
22578;DHT22;11455;52.390;13.028;2023-02-01T10:22:29;6.30;99.90
22578;DHT22;11455;52.390;13.028;2023-02-01T10:25:23;6.40;99.90
22578;DHT22;11455;52.390;13.028;2023-02-01T10:27:48;6.30;99.90
22578;DHT22;11455;52.390;13.028;2023-02-01T10:32:39;6.40;99.90
22578;DHT22;11455;52.390;13.028;2023-02-01T10:35:17;6.40;99.90
22578;DHT22;11455;52.390;13.028;2023-02-01T10:37:43;6.40;99.90
22578;DHT22;11455;52.390;13.028;2023-02-01T10:40:17;6.40;99.90
22578;DHT22;11455;52.390;13.028;2023-02-01T10:42:45;6.30;99.90
22578;DHT22;11455;52.390;13.028;2023-02-01T10:45:16;6.40;99.90
22578;DHT22;11455;52.390;13.028;2023-02-01T10:47:42;6.50;99.90
22578;DHT22;11455;52.390;13.028;2023-02-01T10:50:11;6.50;99.90
22578;DHT22;11455;52.390;13.028;2023-02-01T10:57:57;6.60;99.90
22578;DHT22;11455;52.390;13.028;2023-02-01T11:00:23;6.60;99.90
22578;DHT22;11455;52.390;13.028;2023-02-01T11:02:49;6.60;99.90
22578;DHT22;11455;52.390;13.028;2023-02-01T11:05:15;6.60;99.90
22578;DHT22;11455;52.390;13.028;2023-02-01T11:07:46;6.70;99.90
22578;DHT22;11455;52.390;13.028;2023-02-01T11:10:33;6.80;99.90
22578;DHT22;11455;52.390;13.028;2023-02-01T11:13:01;6.80;99.90
22578;DHT22;11455;52.390;13.028;2023-02-01T11:15:27;6.90;99.90
22578;DHT22;11455;52.390;13.028;2023-02-01T11:17:53;7.00;99.90
22578;DHT22;11455;52.390;13.028;2023-02-01T11:20:39;7.00;99.90
22578;DHT22;11455;52.390;13.028;2023-02-01T11:23:11;7.00;99.90
22578;DHT22;11455;52.390;13.028;2023-02-01T11:25:37;7.10;99.90
22578;DHT22;11455;52.390;13.028;2023-02-01T11:28:03;7.20;99.90
22578;DHT22;11455;52.390;13.028;2023-02-01T11:30:33;7.20;99.90
22578;DHT22;11455;52.390;13.028;2023-02-01T11:33:00;7.30;99.90
22578;DHT22;11455;52.390;13.028;2023-02-01T11:35:26;7.30;99.90
22578;DHT22;11455;52.390;13.028;2023-02-01T11:37:57;7.30;99.90
22578;DHT22;11455;52.390;13.028;2023-02-01T11:40:28;7.30;99.90
22578;DHT22;11455;52.390;13.028;2023-02-01T11:42:57;7.40;99.90
22578;DHT22;11455;52.390;13.028;2023-02-01T11:45:28;7.40;99.90
22578;DHT22;11455;52.390;13.028;2023-02-01T11:47:54;7.40;99.90
22578;DHT22;11455;52.390;13.028;2023-02-01T11:50:41;7.40;99.90
22578;DHT22;11455;52.390;13.028;2023-02-01T12:31:28;7.70;99.90
22578;DHT22;11455;52.390;13.028;2023-02-01T12:36:29;7.70;99.90
22578;DHT22;11455;52.390;13.028;2023-02-01T12:43:55;7.60;99.90
22578;DHT22;11455;52.390;13.028;2023-02-01T12:46:23;7.60;99.90
22578;DHT22;11455;52.390;13.028;2023-02-01T12:48:56;7.60;99.90
22578;DHT22;11455;52.390;13.028;2023-02-01T12:51:23;7.50;99.90
22578;DHT22;11455;52.390;13.028;2023-02-01T12:53:51;7.50;99.90
22578;DHT22;11455;52.390;13.028;2023-02-01T12:56:23;7.50;99.90
22578;DHT22;11455;52.390;13.028;2023-02-01T12:58:53;7.50;99.90
22578;DHT22;11455;52.390;13.028;2023-02-01T13:03:59;7.60;99.90
22578;DHT22;11455;52.390;13.028;2023-02-01T13:06:32;7.60;99.90
22578;DHT22;11455;52.390;13.028;2023-02-01T13:11:26;7.50;99.90
22578;DHT22;11455;52.390;13.028;2023-02-01T13:13:59;7.60;99.90
22578;DHT22;11455;52.390;13.028;2023-02-01T13:16:36;7.60;99.90
22578;DHT22;11455;52.390;13.028;2023-02-01T13:19:26;7.60;99.90
22578;DHT22;11455;52.390;13.028;2023-02-01T13:21:53;7.70;99.90
22578;DHT22;11455;52.390;13.028;2023-02-01T13:24:26;7.70;99.90
22578;DHT22;11455;52.390;13.028;2023-02-01T13:26:56;7.70;99.90
22578;DHT22;11455;52.390;13.028;2023-02-01T13:29:22;7.70;99.90
22578;DHT22;11455;52.390;13.028;2023-02-01T13:39:31;7.80;99.90
22578;DHT22;11455;52.390;13.028;2023-02-01T13:42:03;7.90;99.90
22578;DHT22;11455;52.390;13.028;2023-02-01T13:44:31;7.80;99.90
22578;DHT22;11455;52.390;13.028;2023-02-01T13:46:59;7.80;99.90
22578;DHT22;11455;52.390;13.028;2023-02-01T13:49:27;7.80;99.90
22578;DHT22;11455;52.390;13.028;2023-02-01T13:51:55;7.80;99.90
22578;DHT22;11455;52.390;13.028;2023-02-01T13:54:25;7.80;99.90
22578;DHT22;11455;52.390;13.028;2023-02-01T13:56:51;7.80;99.90
22578;DHT22;11455;52.390;13.028;2023-02-01T13:59:51;7.70;99.90
22578;DHT22;11455;52.390;13.028;2023-02-01T14:04:54;7.80;99.90
22578;DHT22;11455;52.390;13.028;2023-02-01T14:07:21;7.80;99.90
22578;DHT22;11455;52.390;13.028;2023-02-01T14:09:47;7.70;99.90
22578;DHT22;11455;52.390;13.028;2023-02-01T14:15:17;7.80;99.90
22578;DHT22;11455;52.390;13.028;2023-02-01T14:17:44;7.70;99.90
22578;DHT22;11455;52.390;13.028;2023-02-01T14:23:03;7.80;99.90
22578;DHT22;11455;52.390;13.028;2023-02-01T14:25:33;7.90;99.90
22578;DHT22;11455;52.390;13.028;2023-02-01T14:27:58;7.80;99.90
22578;DHT22;11455;52.390;13.028;2023-02-01T14:30:24;7.80;99.90
22578;DHT22;11455;52.390;13.028;2023-02-01T14:32:50;7.90;94.30
22578;DHT22;11455;52.390;13.028;2023-02-01T14:35:26;7.80;72.10
22578;DHT22;11455;52.390;13.028;2023-02-01T14:38:00;7.80;48.60
22578;DHT22;11455;52.390;13.028;2023-02-01T14:40:28;7.80;40.00
22578;DHT22;11455;52.390;13.028;2023-02-01T14:42:56;7.80;19.00
22578;DHT22;11455;52.390;13.028;2023-02-01T14:52:40;7.40;99.90
22578;DHT22;11455;52.390;13.028;2023-02-01T14:55:11;7.30;99.90
22578;DHT22;11455;52.390;13.028;2023-02-01T14:57:39;7.20;99.90
22578;DHT22;11455;52.390;13.028;2023-02-01T15:00:16;7.20;99.90
22578;DHT22;11455;52.390;13.028;2023-02-01T15:02:45;7.20;99.90
22578;DHT22;11455;52.390;13.028;2023-02-01T15:05:30;7.10;99.90
22578;DHT22;11455;52.390;13.028;2023-02-01T15:07:57;7.10;99.90
22578;DHT22;11455;52.390;13.028;2023-02-01T15:10:26;7.00;99.90
22578;DHT22;11455;52.390;13.028;2023-02-01T15:12:52;7.10;99.90
22578;DHT22;11455;52.390;13.028;2023-02-01T15:15:19;7.00;99.90
22578;DHT22;11455;52.390;13.028;2023-02-01T15:17:55;7.10;99.90
22578;DHT22;11455;52.390;13.028;2023-02-01T15:20:25;7.10;99.90
22578;DHT22;11455;52.390;13.028;2023-02-01T15:22:55;7.00;99.90
22578;DHT22;11455;52.390;13.028;2023-02-01T15:25:22;7.00;99.90
22578;DHT22;11455;52.390;13.028;2023-02-01T15:27:48;6.90;99.90
22578;DHT22;11455;52.390;13.028;2023-02-01T15:30:22;6.90;99.90
22578;DHT22;11455;52.390;13.028;2023-02-01T15:32:48;6.90;99.90
22578;DHT22;11455;52.390;13.028;2023-02-01T15:35:34;6.80;99.90
22578;DHT22;11455;52.390;13.028;2023-02-01T15:43:26;6.90;99.90
22578;DHT22;11455;52.390;13.028;2023-02-01T15:45:52;6.90;99.90
22578;DHT22;11455;52.390;13.028;2023-02-01T15:48:22;6.90;99.90
22578;DHT22;11455;52.390;13.028;2023-02-01T15:50:48;7.00;99.90
22578;DHT22;11455;52.390;13.028;2023-02-01T15:53:15;7.00;99.90
22578;DHT22;11455;52.390;13.028;2023-02-01T15:55:43;7.00;99.90
22578;DHT22;11455;52.390;13.028;2023-02-01T15:58:15;6.90;99.90
22578;DHT22;11455;52.390;13.028;2023-02-01T16:00:47;6.80;99.90
22578;DHT22;11455;52.390;13.028;2023-02-01T16:05:54;6.50;99.90
22578;DHT22;11455;52.390;13.028;2023-02-01T16:08:21;5.80;99.90
22578;DHT22;11455;52.390;13.028;2023-02-01T16:10:48;5.50;99.90
22578;DHT22;11455;52.390;13.028;2023-02-01T16:13:14;5.20;99.90
22578;DHT22;11455;52.390;13.028;2023-02-01T16:15:40;5.00;1.00
22578;DHT22;11455;52.390;13.028;2023-02-01T16:18:06;5.00;1.00
22578;DHT22;11455;52.390;13.028;2023-02-01T16:20:39;4.90;1.00
22578;DHT22;11455;52.390;13.028;2023-02-01T16:23:05;4.90;1.00
22578;DHT22;11455;52.390;13.028;2023-02-01T16:25:31;4.90;1.00
22578;DHT22;11455;52.390;13.028;2023-02-01T16:27:56;4.90;1.00
22578;DHT22;11455;52.390;13.028;2023-02-01T16:30:22;4.80;1.00
22578;DHT22;11455;52.390;13.028;2023-02-01T16:32:52;4.80;1.00
22578;DHT22;11455;52.390;13.028;2023-02-01T16:35:20;4.90;1.00
22578;DHT22;11455;52.390;13.028;2023-02-01T16:37:47;4.80;1.00
22578;DHT22;11455;52.390;13.028;2023-02-01T16:40:16;4.90;1.00
22578;DHT22;11455;52.390;13.028;2023-02-01T16:42:43;5.00;1.00
22578;DHT22;11455;52.390;13.028;2023-02-01T16:45:10;5.00;1.00
22578;DHT22;11455;52.390;13.028;2023-02-01T16:47:37;5.10;1.00
22578;DHT22;11455;52.390;13.028;2023-02-01T16:50:04;5.10;1.00
22578;DHT22;11455;52.390;13.028;2023-02-01T16:52:29;5.10;1.00
22578;DHT22;11455;52.390;13.028;2023-02-01T16:54:55;5.20;1.00
22578;DHT22;11455;52.390;13.028;2023-02-01T16:57:21;5.20;1.00
22578;DHT22;11455;52.390;13.028;2023-02-01T16:59:51;5.30;1.00
22578;DHT22;11455;52.390;13.028;2023-02-01T17:02:17;5.20;1.00
22578;DHT22;11455;52.390;13.028;2023-02-01T17:04:46;5.30;1.00
22578;DHT22;11455;52.390;13.028;2023-02-01T17:07:14;5.40;99.90
22578;DHT22;11455;52.390;13.028;2023-02-01T17:09:40;5.40;1.00
22578;DHT22;11455;52.390;13.028;2023-02-01T17:12:06;5.40;1.00
22578;DHT22;11455;52.390;13.028;2023-02-01T17:14:34;5.40;1.00
22578;DHT22;11455;52.390;13.028;2023-02-01T17:17:01;5.40;1.00
22578;DHT22;11455;52.390;13.028;2023-02-01T17:19:27;5.40;1.00
22578;DHT22;11455;52.390;13.028;2023-02-01T17:21:55;5.50;1.00
22578;DHT22;11455;52.390;13.028;2023-02-01T17:24:22;5.50;1.00
22578;DHT22;11455;52.390;13.028;2023-02-01T17:26:48;5.60;99.90
22578;DHT22;11455;52.390;13.028;2023-02-01T17:29:15;5.50;99.90
22578;DHT22;11455;52.390;13.028;2023-02-01T17:31:42;5.60;1.00
22578;DHT22;11455;52.390;13.028;2023-02-01T17:34:12;5.60;99.90
22578;DHT22;11455;52.390;13.028;2023-02-01T17:36:40;5.60;99.90
22578;DHT22;11455;52.390;13.028;2023-02-01T17:39:06;5.70;1.00
22578;DHT22;11455;52.390;13.028;2023-02-01T17:41:31;5.60;99.90
22578;DHT22;11455;52.390;13.028;2023-02-01T17:43:57;5.60;99.90
22578;DHT22;11455;52.390;13.028;2023-02-01T17:46:23;5.60;1.00
22578;DHT22;11455;52.390;13.028;2023-02-01T17:48:53;5.60;1.00
22578;DHT22;11455;52.390;13.028;2023-02-01T17:51:22;5.70;1.00